Terminal Aerodrome Forecast
Issued by NWS

Home | Current Version | Previous Version | Text Only | Print | Product List | Glossary On
Versions: 1 2 3 4 5 6 7 8 9 10 11 12
000
FTUS43 KMQT 031130
TAFIWD
TAF
KIWD 031130Z 0312/0412 22012G18KT P6SM BKN080
     FM031500 21010G20KT P6SM SCT050 BKN100
     FM032000 23010G20KT 5SM -SHRA VCTS BKN050CB
     FM032300 30009KT P6SM BKN050
     FM040200 28005KT P6SM SCT080
      AMD LTD TO CLD VIS AND WIND=

USA.gov is the U.S. government's official web portal to all federal, state and local government web resources and services.